Time;durP1;ratioP1;P1;durP2;ratioP2;P2;SDS_P1;SDS_P2;PMS_P1;PMS_P2;Temp;Humidity;BMP_temperature;BMP_pressure;BME280_temperature;BME280_humidity;BME280_pressure;Samples;Min_cycle;Max_cycle;Signal;HPM_P1;HPM_P2
2022/04/18 00:00:18;;;;;;;;;;;0.90;99.90;;;;;;5051175;28;19948;-74
2022/04/18 00:02:44;;;;;;;;;;;0.90;99.90;;;;;;5052041;28;19908;-74
2022/04/18 00:05:09;;;;;;;;;;;1.00;99.90;;;;;;5051967;28;19912;-74
2022/04/18 00:07:35;;;;;;;;;;;1.00;99.50;;;;;;5052369;28;19909;-74
2022/04/18 00:10:00;;;;;;;;;;;0.90;99.90;;;;;;5052235;28;19967;-74
2022/04/18 00:12:26;;;;;;;;;;;0.70;99.90;;;;;;5051888;28;19978;-74
2022/04/18 00:14:51;;;;;;;;;;;0.60;99.90;;;;;;5051764;28;19919;-74
2022/04/18 00:17:17;;;;;;;;;;;0.60;99.90;;;;;;5050988;28;19913;-74
2022/04/18 00:19:42;;;;;;;;;;;0.70;99.90;;;;;;5041097;28;19941;-74
2022/04/18 00:22:08;;;;;;;;;;;0.60;99.90;;;;;;5051684;28;19935;-74
2022/04/18 00:24:33;;;;;;;;;;;0.60;99.90;;;;;;5043824;28;19916;-74
2022/04/18 00:27:00;;;;;;;;;;;0.60;99.90;;;;;;5051529;28;20396;-74
2022/04/18 00:29:26;;;;;;;;;;;0.60;99.90;;;;;;5051945;28;19989;-74
2022/04/18 00:31:52;;;;;;;;;;;0.40;99.90;;;;;;5051474;28;20527;-74
2022/04/18 00:34:17;;;;;;;;;;;0.30;99.90;;;;;;5051334;28;20463;-74
2022/04/18 00:36:44;;;;;;;;;;;0.50;99.90;;;;;;5051631;28;19909;-74
2022/04/18 00:39:10;;;;;;;;;;;0.40;99.90;;;;;;5051500;28;19916;-74
2022/04/18 00:41:36;;;;;;;;;;;0.20;99.90;;;;;;5051459;28;19913;-74
2022/04/18 00:44:02;;;;;;;;;;;0.20;99.90;;;;;;5051482;28;19961;-74
2022/04/18 00:46:28;;;;;;;;;;;0.30;99.90;;;;;;5051732;28;20377;-74
2022/04/18 00:48:54;;;;;;;;;;;0.20;99.90;;;;;;5051778;28;19914;-74
2022/04/18 00:51:20;;;;;;;;;;;0.10;99.90;;;;;;5051471;28;19912;-73
2022/04/18 00:53:46;;;;;;;;;;;0.00;99.90;;;;;;5050133;28;20003;-74
2022/04/18 00:56:13;;;;;;;;;;;0.00;99.90;;;;;;5046643;28;19944;-73
2022/04/18 00:58:40;;;;;;;;;;;0.20;99.90;;;;;;5051518;28;19919;-74
2022/04/18 01:01:05;;;;;;;;;;;0.30;99.90;;;;;;5053675;28;19992;-74
2022/04/18 01:03:31;;;;;;;;;;;0.30;99.90;;;;;;5051132;28;20343;-73
2022/04/18 01:05:59;;;;;;;;;;;0.30;99.90;;;;;;5053599;28;19912;-73
2022/04/18 01:08:25;;;;;;;;;;;0.30;99.90;;;;;;5056541;28;19963;-73
2022/04/18 01:10:51;;;;;;;;;;;0.40;99.90;;;;;;5051501;28;19908;-74
2022/04/18 01:13:17;;;;;;;;;;;0.40;99.90;;;;;;5051037;28;19960;-73
2022/04/18 01:15:42;;;;;;;;;;;0.30;99.90;;;;;;5051318;28;19947;-74
2022/04/18 01:18:08;;;;;;;;;;;0.10;99.90;;;;;;5051300;28;20377;-74
2022/04/18 01:20:34;;;;;;;;;;;-0.10;99.90;;;;;;5051320;28;19909;-74
2022/04/18 01:23:00;;;;;;;;;;;-0.20;99.90;;;;;;5044585;28;19916;-74
2022/04/18 01:30:54;;;;;;;;;;;-0.10;99.90;;;;;;5055357;28;19966;-74
2022/04/18 01:33:20;;;;;;;;;;;-0.20;99.90;;;;;;5054885;28;20354;-73
2022/04/18 01:35:46;;;;;;;;;;;-0.30;99.90;;;;;;5055333;28;19909;-74
2022/04/18 01:38:12;;;;;;;;;;;-0.40;99.90;;;;;;5055214;28;20330;-74
2022/04/18 01:40:39;;;;;;;;;;;-0.40;99.90;;;;;;5055110;28;20290;-74
2022/04/18 01:43:05;;;;;;;;;;;-0.40;99.90;;;;;;5053408;28;19913;-74
2022/04/18 01:45:30;;;;;;;;;;;-0.40;99.90;;;;;;5055131;28;19916;-74
2022/04/18 01:47:56;;;;;;;;;;;-0.50;99.90;;;;;;5055126;28;19909;-74
2022/04/18 01:50:21;;;;;;;;;;;-0.50;99.90;;;;;;5055051;28;19944;-74
2022/04/18 01:52:47;;;;;;;;;;;-0.40;99.90;;;;;;5054800;28;19909;-74
2022/04/18 01:55:12;;;;;;;;;;;-0.40;99.90;;;;;;5054357;28;19913;-74
2022/04/18 01:57:38;;;;;;;;;;;-0.40;99.90;;;;;;5056150;28;19913;-74
2022/04/18 02:00:03;;;;;;;;;;;-0.40;99.90;;;;;;5054850;28;20472;-74
2022/04/18 02:02:29;;;;;;;;;;;-0.40;99.90;;;;;;5054729;28;19909;-74
2022/04/18 02:04:54;;;;;;;;;;;-0.40;99.90;;;;;;5054526;28;19935;-74
2022/04/18 02:07:21;;;;;;;;;;;-0.40;99.90;;;;;;5054568;28;19909;-74
2022/04/18 02:09:46;;;;;;;;;;;-0.40;99.90;;;;;;5054593;28;20007;-74
2022/04/18 02:12:12;;;;;;;;;;;-0.40;99.90;;;;;;5054425;28;20004;-74
2022/04/18 02:14:37;;;;;;;;;;;-0.50;99.90;;;;;;5054282;28;19917;-74
2022/04/18 02:17:03;;;;;;;;;;;-0.50;99.90;;;;;;5054517;28;19909;-74
2022/04/18 02:19:28;;;;;;;;;;;-0.60;99.90;;;;;;5054531;28;19913;-74
2022/04/18 02:21:54;;;;;;;;;;;-0.60;99.90;;;;;;5054135;28;19912;-74
2022/04/18 02:24:19;;;;;;;;;;;-0.60;99.90;;;;;;5048311;28;19920;-74
2022/04/18 02:26:45;;;;;;;;;;;-0.70;99.90;;;;;;5053365;28;19917;-74
2022/04/18 02:29:10;;;;;;;;;;;-0.70;99.90;;;;;;5054341;28;20373;-74
2022/04/18 02:32:47;;;;;;;;;;;-0.70;99.90;;;;;;5054056;28;19977;-74
2022/04/18 02:34:21;;;;;;;;;;;-0.60;99.90;;;;;;5048261;28;19935;-74
2022/04/18 02:36:47;;;;;;;;;;;-0.60;99.90;;;;;;5054064;28;20382;-74
2022/04/18 02:39:12;;;;;;;;;;;-0.50;99.90;;;;;;5053789;28;20400;-74
2022/04/18 02:41:38;;;;;;;;;;;-0.50;99.90;;;;;;5053299;28;19923;-74
2022/04/18 02:44:04;;;;;;;;;;;-0.60;99.90;;;;;;5053904;28;19909;-74
2022/04/18 02:46:29;;;;;;;;;;;-0.60;99.90;;;;;;5053952;28;19988;-74
2022/04/18 02:48:54;;;;;;;;;;;-0.50;99.90;;;;;;5053990;28;19909;-74
2022/04/18 02:51:20;;;;;;;;;;;-0.50;99.90;;;;;;5053530;28;19913;-74
2022/04/18 02:53:45;;;;;;;;;;;-0.50;99.90;;;;;;5053505;28;19917;-74
2022/04/18 02:56:11;;;;;;;;;;;-0.70;99.90;;;;;;5053600;28;20546;-75
2022/04/18 02:58:36;;;;;;;;;;;-0.70;99.90;;;;;;5053616;28;19909;-75
2022/04/18 03:01:02;;;;;;;;;;;-0.80;99.90;;;;;;5053562;28;20389;-74
2022/04/18 03:03:28;;;;;;;;;;;-0.80;99.90;;;;;;5051679;28;19924;-74
2022/04/18 03:05:53;;;;;;;;;;;-0.70;99.90;;;;;;5053333;28;19916;-75
2022/04/18 03:08:18;;;;;;;;;;;-0.70;99.90;;;;;;5053439;28;19912;-74
2022/04/18 03:13:28;;;;;;;;;;;-1.00;99.90;;;;;;5052886;28;19967;-74
2022/04/18 03:15:54;;;;;;;;;;;-1.10;99.90;;;;;;5053329;28;19913;-74
2022/04/18 03:18:20;;;;;;;;;;;-1.10;99.90;;;;;;5053018;28;19932;-74
2022/04/18 03:20:45;;;;;;;;;;;-1.00;99.90;;;;;;5053257;28;19938;-74
2022/04/18 03:23:11;;;;;;;;;;;-0.90;99.90;;;;;;5052843;28;20376;-75
2022/04/18 03:25:37;;;;;;;;;;;-0.80;99.90;;;;;;5053050;28;19909;-74
2022/04/18 03:28:02;;;;;;;;;;;-0.80;99.90;;;;;;5053138;28;19979;-74
2022/04/18 03:30:28;;;;;;;;;;;-0.60;99.90;;;;;;5053113;28;19913;-74
2022/04/18 03:32:53;;;;;;;;;;;-0.40;99.90;;;;;;5052933;28;19913;-74
2022/04/18 03:35:19;;;;;;;;;;;-0.70;99.90;;;;;;5052589;28;19963;-74
2022/04/18 03:40:29;;;;;;;;;;;-1.00;99.90;;;;;;5053011;28;19970;-75
2022/04/18 03:42:54;;;;;;;;;;;-1.10;99.90;;;;;;5052675;28;20329;-74
2022/04/18 03:45:19;;;;;;;;;;;-1.20;99.90;;;;;;5052682;28;19919;-74
2022/04/18 03:47:45;;;;;;;;;;;-1.20;99.90;;;;;;5052703;28;19908;-74
2022/04/18 03:50:10;;;;;;;;;;;-1.10;99.90;;;;;;5052802;28;20289;-74
2022/04/18 03:52:36;;;;;;;;;;;-1.10;99.90;;;;;;5052487;28;19940;-74
2022/04/18 03:55:02;;;;;;;;;;;-1.20;99.90;;;;;;5051956;28;20358;-74
2022/04/18 03:57:27;;;;;;;;;;;-1.30;99.90;;;;;;5052498;28;19913;-74
2022/04/18 03:59:53;;;;;;;;;;;-1.50;99.90;;;;;;5052683;28;19915;-75
2022/04/18 04:02:18;;;;;;;;;;;-1.50;99.90;;;;;;5052299;28;19913;-74
2022/04/18 04:04:44;;;;;;;;;;;-1.40;99.90;;;;;;5052254;28;19941;-74
2022/04/18 04:07:09;;;;;;;;;;;-1.30;99.90;;;;;;5052425;28;20263;-74
2022/04/18 04:09:36;;;;;;;;;;;-1.30;99.90;;;;;;5052490;28;19908;-74
2022/04/18 04:12:03;;;;;;;;;;;-1.20;99.90;;;;;;5052188;28;19913;-74
2022/04/18 04:14:28;;;;;;;;;;;-1.10;99.90;;;;;;5051911;28;19928;-73
2022/04/18 04:16:54;;;;;;;;;;;-1.00;99.90;;;;;;5052125;28;19913;-74
2022/04/18 04:19:19;;;;;;;;;;;-1.00;99.90;;;;;;5052153;28;19913;-74
2022/04/18 04:21:45;;;;;;;;;;;-1.10;99.90;;;;;;5051972;28;19952;-74
2022/04/18 04:24:10;;;;;;;;;;;-1.20;99.90;;;;;;5050498;28;19935;-75
2022/04/18 04:26:36;;;;;;;;;;;-1.40;99.90;;;;;;5051221;28;20266;-74
2022/04/18 04:29:02;;;;;;;;;;;-1.40;99.90;;;;;;5052068;28;19916;-74
2022/04/18 04:31:27;;;;;;;;;;;-1.30;99.90;;;;;;5051279;28;20293;-74
2022/04/18 04:33:53;;;;;;;;;;;-1.30;99.90;;;;;;5051583;28;20050;-74
2022/04/18 04:36:18;;;;;;;;;;;-1.40;99.90;;;;;;5051816;28;19908;-74
2022/04/18 04:38:44;;;;;;;;;;;-1.50;99.90;;;;;;5051909;28;19932;-74
2022/04/18 04:41:09;;;;;;;;;;;-1.40;99.90;;;;;;5051725;28;19909;-74
2022/04/18 04:43:35;;;;;;;;;;;-1.30;99.90;;;;;;5051498;28;19909;-74
2022/04/18 04:46:00;;;;;;;;;;;-1.00;99.90;;;;;;5051631;28;19909;-74
2022/04/18 04:48:26;;;;;;;;;;;-0.80;99.90;;;;;;5051594;28;19913;-74
2022/04/18 04:50:52;;;;;;;;;;;-1.00;99.90;;;;;;5051590;28;19984;-74
2022/04/18 04:53:18;;;;;;;;;;;-1.10;99.90;;;;;;5051063;28;19970;-74
2022/04/18 04:55:43;;;;;;;;;;;-1.00;99.90;;;;;;5051100;28;19908;-74
2022/04/18 04:58:10;;;;;;;;;;;-1.00;99.90;;;;;;5051382;28;19908;-74
2022/04/18 05:00:35;;;;;;;;;;;-0.90;99.90;;;;;;5051229;28;20353;-74
2022/04/18 05:03:01;;;;;;;;;;;-0.90;99.90;;;;;;5050824;28;19908;-75
2022/04/18 05:05:26;;;;;;;;;;;-0.90;99.90;;;;;;5051198;28;19909;-75
2022/04/18 05:07:52;;;;;;;;;;;-0.90;99.90;;;;;;5051413;28;19909;-74
2022/04/18 05:10:18;;;;;;;;;;;-0.90;99.90;;;;;;5051414;28;19916;-75
2022/04/18 05:12:43;;;;;;;;;;;-0.80;99.90;;;;;;5051051;28;19986;-74
2022/04/18 05:15:09;;;;;;;;;;;-0.80;99.90;;;;;;5050923;28;20026;-75
2022/04/18 05:17:34;;;;;;;;;;;-0.70;99.90;;;;;;5051164;28;19917;-74
2022/04/18 05:20:02;;;;;;;;;;;-0.70;99.90;;;;;;5051241;28;19916;-75
2022/04/18 05:22:28;;;;;;;;;;;-0.70;99.90;;;;;;5050931;28;19913;-75
2022/04/18 05:24:55;;;;;;;;;;;-0.60;99.90;;;;;;5050732;28;19920;-74
2022/04/18 05:27:21;;;;;;;;;;;-0.50;99.90;;;;;;5050907;28;19912;-75
2022/04/18 05:29:46;;;;;;;;;;;-0.40;99.90;;;;;;5051051;28;19916;-75
2022/04/18 05:32:12;;;;;;;;;;;-0.40;99.90;;;;;;5050799;28;19917;-74
2022/04/18 05:34:37;;;;;;;;;;;-0.40;99.90;;;;;;5050773;28;19963;-74
2022/04/18 05:37:04;;;;;;;;;;;-0.30;99.90;;;;;;5051130;28;19908;-74
2022/04/18 05:39:30;;;;;;;;;;;-0.30;99.90;;;;;;5051392;28;20312;-75
2022/04/18 05:41:58;;;;;;;;;;;-0.10;99.90;;;;;;5050840;28;20048;-75
2022/04/18 05:44:24;;;;;;;;;;;0.00;99.90;;;;;;5050612;28;19909;-74
2022/04/18 05:46:49;;;;;;;;;;;0.20;99.90;;;;;;5050945;28;19954;-74
2022/04/18 05:49:15;;;;;;;;;;;0.40;99.90;;;;;;5051011;28;19909;-75
2022/04/18 05:51:40;;;;;;;;;;;0.60;99.90;;;;;;5050676;28;19909;-75
2022/04/18 05:54:06;;;;;;;;;;;0.60;99.90;;;;;;5050454;28;19920;-75
2022/04/18 05:56:32;;;;;;;;;;;0.80;99.90;;;;;;5063090;28;19935;-74
2022/04/18 05:58:57;;;;;;;;;;;0.80;99.90;;;;;;5072602;28;19913;-74
2022/04/18 06:01:23;;;;;;;;;;;0.90;99.90;;;;;;5074382;28;19928;-73
2022/04/18 06:03:48;;;;;;;;;;;1.00;99.90;;;;;;5075930;28;19916;-74
2022/04/18 06:06:14;;;;;;;;;;;1.00;99.90;;;;;;5072385;28;19916;-74
2022/04/18 06:08:40;;;;;;;;;;;1.10;99.90;;;;;;5075552;28;20297;-74
2022/04/18 06:11:06;;;;;;;;;;;1.20;99.90;;;;;;5069136;28;19971;-74
2022/04/18 06:13:31;;;;;;;;;;;1.30;99.90;;;;;;5050052;28;19913;-75
2022/04/18 06:15:57;;;;;;;;;;;1.50;99.90;;;;;;5052778;28;20435;-74
2022/04/18 06:18:22;;;;;;;;;;;1.60;99.90;;;;;;5054434;28;20000;-74
2022/04/18 06:20:48;;;;;;;;;;;1.80;99.90;;;;;;5054205;28;19913;-74
2022/04/18 06:23:17;;;;;;;;;;;1.90;99.90;;;;;;5053981;28;20346;-74
2022/04/18 06:25:43;;;;;;;;;;;2.10;99.90;;;;;;5053897;28;19909;-75
2022/04/18 06:28:08;;;;;;;;;;;2.50;99.90;;;;;;5052646;28;19919;-74
2022/04/18 06:30:33;;;;;;;;;;;2.90;99.90;;;;;;5054415;28;19912;-74
2022/04/18 06:32:59;;;;;;;;;;;3.30;99.90;;;;;;5053731;28;19916;-74
2022/04/18 06:35:25;;;;;;;;;;;3.40;99.90;;;;;;5053626;28;19995;-74
2022/04/18 06:37:50;;;;;;;;;;;3.60;99.90;;;;;;5053649;28;19909;-74
2022/04/18 06:40:16;;;;;;;;;;;3.80;99.90;;;;;;5053804;28;19909;-75
2022/04/18 06:42:41;;;;;;;;;;;3.90;99.90;;;;;;5052399;28;19909;-75
2022/04/18 06:45:07;;;;;;;;;;;4.20;99.90;;;;;;5053530;28;19920;-74
2022/04/18 06:47:32;;;;;;;;;;;4.40;99.90;;;;;;5053691;28;19909;-74
2022/04/18 06:49:58;;;;;;;;;;;4.50;99.40;;;;;;5053629;28;19917;-75
2022/04/18 06:52:23;;;;;;;;;;;4.70;98.60;;;;;;5053310;28;19908;-75
2022/04/18 06:54:49;;;;;;;;;;;5.00;97.70;;;;;;5051819;28;20127;-74
2022/04/18 06:57:16;;;;;;;;;;;5.10;97.20;;;;;;5052214;28;19909;-75
2022/04/18 06:59:41;;;;;;;;;;;5.60;94.10;;;;;;5053157;28;20168;-75
2022/04/18 07:02:07;;;;;;;;;;;5.80;94.30;;;;;;5053308;28;19967;-75
2022/04/18 07:04:33;;;;;;;;;;;6.30;92.30;;;;;;5053161;28;19916;-74
2022/04/18 07:06:58;;;;;;;;;;;6.60;90.70;;;;;;5053330;28;20278;-75
2022/04/18 07:09:24;;;;;;;;;;;6.80;90.60;;;;;;5053448;28;19909;-75
2022/04/18 07:11:50;;;;;;;;;;;6.70;91.90;;;;;;5052895;28;19909;-75
2022/04/18 07:14:15;;;;;;;;;;;6.80;90.30;;;;;;5052835;28;19913;-75
2022/04/18 07:16:41;;;;;;;;;;;6.60;91.80;;;;;;5053042;28;19943;-75
2022/04/18 07:19:07;;;;;;;;;;;7.00;90.40;;;;;;5053021;28;19970;-75
2022/04/18 07:21:33;;;;;;;;;;;8.50;89.20;;;;;;5053121;28;19913;-74
2022/04/18 07:23:58;;;;;;;;;;;9.50;85.80;;;;;;5052760;28;19952;-74
2022/04/18 07:26:24;;;;;;;;;;;11.10;79.80;;;;;;5050146;28;19916;-74
2022/04/18 07:28:50;;;;;;;;;;;11.50;74.30;;;;;;5052492;28;19909;-74
2022/04/18 07:31:15;;;;;;;;;;;12.10;72.90;;;;;;5052637;28;19908;-74
2022/04/18 07:33:41;;;;;;;;;;;12.80;71.70;;;;;;5052551;28;19920;-74
2022/04/18 07:36:06;;;;;;;;;;;13.30;67.60;;;;;;5052878;28;19909;-74
2022/04/18 07:38:50;;;;;;;;;;;14.10;65.10;;;;;;5052843;28;19909;-73
2022/04/18 07:41:23;;;;;;;;;;;14.00;66.60;;;;;;5046077;28;19912;-73
2022/04/18 07:43:49;;;;;;;;;;;14.50;61.70;;;;;;5052245;28;20358;-74
2022/04/18 07:46:15;;;;;;;;;;;14.20;64.90;;;;;;5052698;28;19939;-74
2022/04/18 07:48:41;;;;;;;;;;;14.70;61.30;;;;;;5045204;28;19909;-74
2022/04/18 07:53:50;;;;;;;;;;;15.30;60.80;;;;;;5052525;28;19934;-74
2022/04/18 07:56:16;;;;;;;;;;;15.50;58.50;;;;;;5047871;28;20359;-74
2022/04/18 07:58:41;;;;;;;;;;;15.40;59.80;;;;;;5050551;28;19909;-74
2022/04/18 08:01:07;;;;;;;;;;;15.70;59.70;;;;;;5052224;28;19908;-74
2022/04/18 08:03:34;;;;;;;;;;;16.40;58.40;;;;;;5051876;28;19916;-74
2022/04/18 08:05:59;;;;;;;;;;;16.20;58.00;;;;;;5052146;28;19948;-74
2022/04/18 08:08:25;;;;;;;;;;;16.30;57.80;;;;;;5052248;28;20412;-74
2022/04/18 08:10:51;;;;;;;;;;;16.20;57.90;;;;;;5052027;28;20298;-74
2022/04/18 08:13:16;;;;;;;;;;;15.80;57.20;;;;;;5051692;28;20293;-74
2022/04/18 08:15:42;;;;;;;;;;;15.80;55.10;;;;;;5052432;28;19970;-74
2022/04/18 08:18:07;;;;;;;;;;;16.40;57.20;;;;;;5052044;28;19920;-74
2022/04/18 08:20:33;;;;;;;;;;;16.60;54.80;;;;;;5051702;28;20406;-74
2022/04/18 08:22:58;;;;;;;;;;;16.60;55.60;;;;;;5052288;28;19915;-74
2022/04/18 08:25:24;;;;;;;;;;;17.70;57.70;;;;;;5051772;28;19931;-74
2022/04/18 08:27:50;;;;;;;;;;;18.60;57.10;;;;;;5042178;28;19909;-74
2022/04/18 08:30:15;;;;;;;;;;;17.70;54.50;;;;;;5051731;28;19909;-74
2022/04/18 08:32:41;;;;;;;;;;;17.80;53.90;;;;;;5051430;28;20352;-74
2022/04/18 08:35:06;;;;;;;;;;;17.90;55.90;;;;;;5051237;28;19913;-74
2022/04/18 08:37:34;;;;;;;;;;;17.20;52.00;;;;;;5051038;28;20000;-73
2022/04/18 08:40:00;;;;;;;;;;;17.30;53.90;;;;;;5050256;28;19909;-73
2022/04/18 08:42:27;;;;;;;;;;;16.90;51.30;;;;;;5045108;28;19974;-74
2022/04/18 08:44:54;;;;;;;;;;;18.40;50.00;;;;;;5045646;28;19919;-73
2022/04/18 08:52:49;;;;;;;;;;;19.90;51.40;;;;;;5045292;28;20285;-73
2022/04/18 08:55:15;;;;;;;;;;;20.10;52.60;;;;;;5043031;28;20008;-73
2022/04/18 08:57:41;;;;;;;;;;;20.70;48.80;;;;;;5044620;28;19995;-73
2022/04/18 09:00:07;;;;;;;;;;;18.90;45.90;;;;;;5048583;28;20019;-73
2022/04/18 09:02:32;;;;;;;;;;;19.40;46.40;;;;;;5051201;28;20138;-73
2022/04/18 09:04:58;;;;;;;;;;;18.20;47.90;;;;;;5050959;28;19956;-73
2022/04/18 09:07:23;;;;;;;;;;;19.10;49.90;;;;;;5051280;28;19916;-74
2022/04/18 09:09:54;;;;;;;;;;;19.40;49.30;;;;;;5051040;28;19909;-73
2022/04/18 09:12:20;;;;;;;;;;;20.10;49.90;;;;;;5049305;28;19931;-73
2022/04/18 09:14:48;;;;;;;;;;;20.20;48.30;;;;;;5049360;28;20341;-73
2022/04/18 09:17:46;;;;;;;;;;;19.00;46.10;;;;;;5050912;28;19920;-74
2022/04/18 09:20:13;;;;;;;;;;;18.10;47.60;;;;;;5049700;28;20341;-73
2022/04/18 09:22:48;;;;;;;;;;;17.80;47.60;;;;;;5050755;28;20015;-74
2022/04/18 09:25:14;;;;;;;;;;;18.50;49.30;;;;;;5050694;28;19908;-74
2022/04/18 09:27:40;;;;;;;;;;;19.50;51.30;;;;;;5050529;28;20003;-74
2022/04/18 09:30:07;;;;;;;;;;;19.90;51.30;;;;;;5050866;28;20119;-74
2022/04/18 09:32:32;;;;;;;;;;;20.60;46.90;;;;;;5050767;28;19909;-74
2022/04/18 09:35:02;;;;;;;;;;;20.10;47.10;;;;;;5050619;28;20259;-74
2022/04/18 09:37:28;;;;;;;;;;;19.90;48.80;;;;;;5050884;28;19909;-74
2022/04/18 09:39:54;;;;;;;;;;;21.10;47.60;;;;;;5050674;28;20433;-74
2022/04/18 09:42:23;;;;;;;;;;;21.60;47.90;;;;;;5050626;28;20222;-74
2022/04/18 09:44:49;;;;;;;;;;;21.60;45.70;;;;;;5050821;28;19912;-74
2022/04/18 09:47:22;;;;;;;;;;;20.50;45.60;;;;;;5051166;28;19909;-74
2022/04/18 09:49:47;;;;;;;;;;;20.90;48.20;;;;;;5052867;28;20316;-74
2022/04/18 09:52:16;;;;;;;;;;;21.80;46.20;;;;;;5054464;28;19909;-74
2022/04/18 09:54:55;;;;;;;;;;;21.00;43.70;;;;;;5054332;28;20327;-74
2022/04/18 09:57:29;;;;;;;;;;;21.50;48.00;;;;;;5050143;28;19909;-74
2022/04/18 09:59:55;;;;;;;;;;;21.80;45.10;;;;;;5050336;28;19916;-74
2022/04/18 10:02:21;;;;;;;;;;;21.00;45.80;;;;;;5054362;28;19916;-74
2022/04/18 10:04:47;;;;;;;;;;;22.70;44.90;;;;;;5054129;28;19932;-75
2022/04/18 10:07:13;;;;;;;;;;;21.80;45.60;;;;;;5054494;28;19963;-75
2022/04/18 10:09:39;;;;;;;;;;;19.20;46.60;;;;;;5054417;28;20373;-75
2022/04/18 10:12:07;;;;;;;;;;;20.70;51.10;;;;;;5054284;28;20408;-74
2022/04/18 10:14:32;;;;;;;;;;;21.50;43.80;;;;;;5054106;28;19913;-74
2022/04/18 10:16:59;;;;;;;;;;;22.70;46.90;;;;;;5054599;28;20275;-74
2022/04/18 10:19:27;;;;;;;;;;;22.00;42.80;;;;;;5054173;28;19917;-74
2022/04/18 10:22:13;;;;;;;;;;;21.90;43.60;;;;;;5053938;28;19909;-74
2022/04/18 10:24:42;;;;;;;;;;;21.60;45.80;;;;;;5053491;28;20412;-74
2022/04/18 10:27:27;;;;;;;;;;;22.90;40.80;;;;;;5052122;28;20085;-74
2022/04/18 10:29:54;;;;;;;;;;;22.60;43.00;;;;;;5053434;28;19908;-74
2022/04/18 10:32:22;;;;;;;;;;;23.20;42.50;;;;;;5053806;28;19909;-74
2022/04/18 10:34:51;;;;;;;;;;;24.20;45.40;;;;;;5053689;28;19916;-74
2022/04/18 10:37:20;;;;;;;;;;;24.80;41.50;;;;;;5053931;28;19920;-74
2022/04/18 10:39:54;;;;;;;;;;;22.50;41.20;;;;;;5047270;28;19963;-74
2022/04/18 10:42:21;;;;;;;;;;;24.70;44.90;;;;;;5052611;28;19909;-74
2022/04/18 10:45:05;;;;;;;;;;;22.50;45.30;;;;;;5053659;28;20316;-74
2022/04/18 10:48:06;;;;;;;;;;;22.50;39.60;;;;;;5054087;28;19912;-74
2022/04/18 10:50:39;;;;;;;;;;;23.90;42.00;;;;;;5031495;28;19921;-74
2022/04/18 10:53:08;;;;;;;;;;;24.50;40.50;;;;;;5047962;28;19932;-74
2022/04/18 10:55:34;;;;;;;;;;;23.20;41.40;;;;;;5053485;28;20008;-73
2022/04/18 10:58:14;;;;;;;;;;;23.30;40.20;;;;;;5052417;28;20277;-74
2022/04/18 11:00:51;;;;;;;;;;;23.70;42.30;;;;;;5054002;28;19909;-73
2022/04/18 11:03:38;;;;;;;;;;;22.60;40.10;;;;;;5055593;28;20316;-74
2022/04/18 11:06:15;;;;;;;;;;;22.60;42.10;;;;;;5047541;28;19979;-74
2022/04/18 11:08:42;;;;;;;;;;;22.60;42.00;;;;;;5052964;28;20362;-74
2022/04/18 11:11:15;;;;;;;;;;;23.30;43.70;;;;;;5053240;28;19931;-74
2022/04/18 11:13:43;;;;;;;;;;;23.00;38.90;;;;;;5052938;28;19960;-73
2022/04/18 11:16:24;;;;;;;;;;;23.20;40.40;;;;;;5053236;28;20444;-74
2022/04/18 11:19:08;;;;;;;;;;;24.20;39.40;;;;;;5053194;28;20701;-74
2022/04/18 11:22:00;;;;;;;;;;;23.80;41.50;;;;;;5046614;28;19956;-74
2022/04/18 11:24:33;;;;;;;;;;;24.60;38.30;;;;;;5052733;28;20397;-74
2022/04/18 11:26:58;;;;;;;;;;;24.20;37.90;;;;;;5052639;28;19916;-73
2022/04/18 11:29:24;;;;;;;;;;;23.20;38.90;;;;;;5052742;28;19916;-74
2022/04/18 11:31:50;;;;;;;;;;;24.00;39.60;;;;;;5052843;28;20552;-73
2022/04/18 11:34:17;;;;;;;;;;;23.20;39.20;;;;;;5052442;28;19919;-73
2022/04/18 11:36:43;;;;;;;;;;;22.40;39.80;;;;;;5052833;28;19932;-73
2022/04/18 11:39:10;;;;;;;;;;;23.60;40.70;;;;;;5052645;28;20370;-74
2022/04/18 11:41:36;;;;;;;;;;;24.90;38.20;;;;;;5052517;28;20333;-73
2022/04/18 11:44:02;;;;;;;;;;;24.30;36.20;;;;;;5052484;28;19913;-74
2022/04/18 11:46:28;;;;;;;;;;;24.50;38.10;;;;;;5052698;28;19912;-74
2022/04/18 11:48:54;;;;;;;;;;;24.50;35.80;;;;;;5052493;28;19912;-73
2022/04/18 11:51:41;;;;;;;;;;;23.50;38.30;;;;;;5052085;28;20427;-74
2022/04/18 11:54:07;;;;;;;;;;;24.00;37.90;;;;;;5052114;28;19913;-74
2022/04/18 11:56:32;;;;;;;;;;;24.30;37.20;;;;;;5052269;28;19916;-74
2022/04/18 11:59:06;;;;;;;;;;;23.20;38.90;;;;;;5052334;28;19913;-73
2022/04/18 12:07:00;;;;;;;;;;;23.80;39.20;;;;;;5052277;28;19916;-75
2022/04/18 12:09:26;;;;;;;;;;;24.30;39.90;;;;;;5051815;28;19909;-74
2022/04/18 12:11:51;;;;;;;;;;;24.40;38.70;;;;;;5051351;28;19909;-74
2022/04/18 12:14:18;;;;;;;;;;;22.30;38.50;;;;;;5051065;28;20362;-75
2022/04/18 12:16:43;;;;;;;;;;;22.80;38.10;;;;;;5052105;28;20369;-74
2022/04/18 12:19:14;;;;;;;;;;;22.00;39.50;;;;;;5051928;28;19943;-74
2022/04/18 12:21:39;;;;;;;;;;;23.00;39.70;;;;;;5051711;28;19964;-74
2022/04/18 12:24:05;;;;;;;;;;;23.60;38.20;;;;;;5055643;28;19909;-74
2022/04/18 12:26:34;;;;;;;;;;;24.40;38.40;;;;;;5056120;28;19916;-74
2022/04/18 12:29:10;;;;;;;;;;;25.20;35.90;;;;;;5055568;28;20334;-74
2022/04/18 12:31:39;;;;;;;;;;;24.40;36.40;;;;;;5054037;28;19975;-74
2022/04/18 12:34:04;;;;;;;;;;;23.20;37.80;;;;;;5051605;28;20004;-74
2022/04/18 12:36:33;;;;;;;;;;;22.40;37.10;;;;;;5051671;28;20051;-75
2022/04/18 12:38:59;;;;;;;;;;;23.00;37.80;;;;;;5051689;28;19913;-74
2022/04/18 12:41:32;;;;;;;;;;;22.90;37.80;;;;;;5051559;28;19999;-74
2022/04/18 12:43:58;;;;;;;;;;;22.20;37.10;;;;;;5051405;28;20333;-76
2022/04/18 12:46:25;;;;;;;;;;;22.60;39.30;;;;;;5050647;28;19915;-75
2022/04/18 12:48:51;;;;;;;;;;;21.70;39.30;;;;;;5053368;28;19931;-74
2022/04/18 12:51:18;;;;;;;;;;;21.00;41.80;;;;;;5052079;28;19999;-75
2022/04/18 12:53:43;;;;;;;;;;;18.30;44.10;;;;;;5051119;28;19913;-74
2022/04/18 12:56:10;;;;;;;;;;;17.30;43.50;;;;;;5051326;28;19916;-74
2022/04/18 12:58:39;;;;;;;;;;;17.20;45.60;;;;;;5052054;28;19915;-73
2022/04/18 13:01:05;;;;;;;;;;;16.70;46.30;;;;;;5052626;28;19916;-74
2022/04/18 13:03:39;;;;;;;;;;;16.30;47.10;;;;;;5052035;28;19909;-74
2022/04/18 13:06:04;;;;;;;;;;;16.40;48.30;;;;;;5051450;28;19910;-75
2022/04/18 13:08:30;;;;;;;;;;;16.30;49.80;;;;;;5051583;28;19970;-74
2022/04/18 13:10:56;;;;;;;;;;;16.10;47.90;;;;;;5051555;28;19909;-74
2022/04/18 13:13:21;;;;;;;;;;;15.70;48.80;;;;;;5051418;28;20021;-74
2022/04/18 13:15:49;;;;;;;;;;;15.50;49.80;;;;;;5051411;28;19970;-74
2022/04/18 13:18:21;;;;;;;;;;;15.20;49.80;;;;;;5051640;28;19963;-74
2022/04/18 13:20:47;;;;;;;;;;;15.30;50.70;;;;;;5049493;28;19915;-74
2022/04/18 13:23:13;;;;;;;;;;;15.30;51.70;;;;;;5050714;28;19999;-74
2022/04/18 13:25:41;;;;;;;;;;;15.20;49.30;;;;;;5044459;28;19913;-74
2022/04/18 13:28:07;;;;;;;;;;;15.20;49.20;;;;;;5051049;28;19955;-74
2022/04/18 13:30:33;;;;;;;;;;;15.00;50.40;;;;;;5051041;28;19909;-74
2022/04/18 13:32:59;;;;;;;;;;;15.30;49.70;;;;;;5050897;28;19913;-74
2022/04/18 13:35:24;;;;;;;;;;;15.10;49.60;;;;;;5050737;28;19917;-74
2022/04/18 13:37:51;;;;;;;;;;;14.90;50.40;;;;;;5051230;28;19909;-72
2022/04/18 13:40:17;;;;;;;;;;;15.20;50.40;;;;;;5051177;28;19944;-74
2022/04/18 13:42:42;;;;;;;;;;;15.30;48.40;;;;;;5050972;28;19963;-74
2022/04/18 13:45:09;;;;;;;;;;;15.40;48.80;;;;;;5050949;28;19917;-74
2022/04/18 13:47:41;;;;;;;;;;;15.40;50.70;;;;;;5051001;28;20445;-74
2022/04/18 13:50:11;;;;;;;;;;;15.00;47.80;;;;;;5051062;28;19966;-74
2022/04/18 13:52:40;;;;;;;;;;;15.10;49.60;;;;;;5050755;28;19908;-74
2022/04/18 13:55:09;;;;;;;;;;;15.10;50.40;;;;;;5050582;28;19920;-75
2022/04/18 13:57:35;;;;;;;;;;;15.30;49.70;;;;;;5051849;28;20058;-74
2022/04/18 14:00:00;;;;;;;;;;;15.20;49.90;;;;;;5053730;28;20380;-75
2022/04/18 14:02:26;;;;;;;;;;;16.80;49.00;;;;;;5050581;28;19912;-75
2022/04/18 14:04:51;;;;;;;;;;;20.60;42.50;;;;;;5050664;28;19908;-75
2022/04/18 14:07:17;;;;;;;;;;;21.70;39.20;;;;;;5051085;28;19960;-75
2022/04/18 14:09:44;;;;;;;;;;;23.60;41.00;;;;;;5051107;28;19908;-75
2022/04/18 14:12:09;;;;;;;;;;;23.20;35.20;;;;;;5050582;28;19909;-75
2022/04/18 14:20:21;;;;;;;;;;;23.00;38.60;;;;;;5050981;28;19916;-76
2022/04/18 14:22:50;;;;;;;;;;;23.90;36.70;;;;;;5046336;28;19909;-76
2022/04/18 14:25:16;;;;;;;;;;;23.30;38.30;;;;;;5050368;28;20019;-76
2022/04/18 14:27:42;;;;;;;;;;;23.70;37.30;;;;;;5050361;28;20373;-74
2022/04/18 14:30:08;;;;;;;;;;;22.60;37.70;;;;;;5050631;28;19909;-74
2022/04/18 14:32:33;;;;;;;;;;;22.70;36.80;;;;;;5050443;28;19911;-74
2022/04/18 14:34:59;;;;;;;;;;;23.20;37.20;;;;;;5050297;28;19920;-75
2022/04/18 14:37:24;;;;;;;;;;;23.70;37.10;;;;;;5053523;28;19909;-75
2022/04/18 14:39:53;;;;;;;;;;;24.00;37.30;;;;;;5054179;28;19955;-75
2022/04/18 14:42:23;;;;;;;;;;;22.50;36.70;;;;;;5054064;28;19920;-75
2022/04/18 14:44:50;;;;;;;;;;;22.60;35.70;;;;;;5053970;28;19917;-75
2022/04/18 14:47:16;;;;;;;;;;;24.20;39.30;;;;;;5054319;28;19913;-75